Aviation Digital Data Service (ADDS)

Output produced by METARs form (2344 UTC 23 October 2019)
found at http://www.aviationweather.gov/metar/data/
 
Forecast for: RJFS (SAGA AIRPORT , JP)
Text: TAF RJFS 232307Z 2400/2506 02012KT 7000 -SHRA FEW005 SCT020 BKN030
Forecast period: 0000 to 0700 UTC 24 October 2019
Forecast type: FROM: standard forecast or significant change
Winds: from the NNE (20 degrees) at 14 MPH (12 knots; 6.2 m/s)
Visibility: 4 miles (7 km)
Ceiling: 3000 feet AGL
Clouds: few clouds at 500 feet AGL
scattered clouds at 2000 feet AGL
broken clouds at 3000 feet AGL
Weather: -SHRA  (light rain showers)
Text: TEMPO 2403/2409 3000 SHRA BR
Forecast period: 0300 to 0900 UTC 24 October 2019
Forecast type: TEMPORARY: The following changes expected for less than half the time period
Visibility: 1.86 miles (2.99 km)
Ceiling: unknown
Clouds: missing
Weather: SHRA BR  (rain showers, mist)
Text: BECMG 2407/2409 33006KT
Forecast period: 0700 UTC 24 October 2019 to 0600 UTC 25 October 2019
Forecast type: BECOMING: Conditions expected to become as follows by 0900 UTC 24 October 2019
Winds: from the NNW (330 degrees) at 7 MPH (6 knots; 3.1 m/s)
Visibility: 4 miles (7 km)
Ceiling: 3000 feet AGL
Clouds: few clouds at 500 feet AGL
scattered clouds at 2000 feet AGL
broken clouds at 3000 feet AGL
Weather: -SHRA  (light rain showers)